Flight Track Log - Related Links

Times and Time Zones

All times are in EDT time to prevent confusion due to time zone crossing. See the SWA1202 flight status page for this flight to view local times or setup timezone preferences in your user account.

Time Position Orientation Groundspeed Altitude Reporting Facility
EDT Latitude Longitude Course Direction KTS MPH feet Rate Location/Type
Thu 10:02:55 AM 39.8536 -104.5214 105° East 228 262 8,400  Level Denver Center
Thu 10:03:56 AM 39.8128 -104.4064 115° Southeast 289 333 10,700 2,164 Climbing Denver Center
Thu 10:04:57 AM 39.7697 -104.2981 117° Southeast 338 389 12,800 1,951 Climbing Denver Center
Thu 10:05:59 AM 39.7267 -104.1686 113° Southeast 366 421 14,700 2,341 Climbing Denver Center
Thu 10:07:00 AM 39.6786 -104.0400 116° Southeast 393 452 17,600 2,341 Climbing Denver Center
Thu 10:08:02 AM 39.6347 -103.9147 114° Southeast 384 442 19,500 1,659 Climbing Denver Center
Thu 10:09:03 AM 39.5853 -103.7769 115° Southeast 423 487 21,000 1,967 Climbing Denver Center
Thu 10:10:04 AM 39.5467 -103.6253 108° East 425 489 23,500 2,098 Climbing Denver Center
Thu 10:11:06 AM 39.5072 -103.4731 109° East 439 505 25,300 1,610 Climbing Denver Center
Thu 10:12:07 AM 39.4650 -103.3144 109° East 459 528 26,800 1,366 Climbing Denver Center
Thu 10:13:09 AM 39.4211 -103.1511 109° East 475 547 28,100 1,220 Climbing Denver Center
Thu 10:14:10 AM 39.3767 -102.9811 109° East 491 565 29,300 1,244 Climbing Denver Center
Thu 10:15:24 AM 39.3308 -102.8086 109° East 502 578 30,900 1,897 Climbing Denver Center
Thu 10:16:26 AM 39.2694 -102.5869 110° East 493 567 33,600 1,805 Climbing Denver Center
Thu 10:17:27 AM 39.2256 -102.4297 110° East 487 560 34,600 1,024 Climbing Denver Center
Thu 10:18:29 AM 39.1828 -102.2689 109° East 496 571 35,700 1,073 Climbing Denver Center
Thu 10:19:30 AM 39.1322 -102.0861 110° East 488 562 36,800 634 Climbing Denver Center
Thu 10:20:32 AM 39.0597 -101.9544 125° Southeast 472 543 37,000 97 Climbing Denver Center
Thu 10:21:34 AM 38.9778 -101.7900 123° Southeast 491 565 37,000  Level Denver Center
Thu 10:22:35 AM 38.9131 -101.6378 119° Southeast 504 580 37,000  Level Denver Center
Thu 10:23:37 AM 38.8583 -101.5122 119° Southeast 506 582 37,000  Level Denver Center
Thu 10:24:39 AM 38.7717 -101.3119 119° Southeast 505 581 37,000  Level Denver Center
Thu 10:25:40 AM 38.7061 -101.1625 119° Southeast 502 578 37,000  Level Denver Center
Thu 10:26:42 AM 38.6289 -100.9869 119° Southeast 505 581 37,000  Level Denver Center
Thu 10:27:44 AM 38.5739 -100.8625 119° Southeast 504 580 37,000  Level Denver Center
Thu 10:28:46 AM 38.4856 -100.6622 119° Southeast 505 581 37,000  Level Denver Center
Thu 10:29:48 AM 38.4194 -100.5139 120° Southeast 503 579 37,000  Level Denver Center
Thu 10:30:49 AM 38.3406 -100.3389 120° Southeast 506 582 37,000  Level Denver Center
Thu 10:31:18 AM 38.3178 -100.2872 119° Southeast 504 580 37,000  Level Kansas City Center
Thu 10:32:19 AM 38.2381 -100.1133 120° Southeast 505 581 37,000  Level Kansas City Center
Thu 10:33:22 AM 38.1711 -99.9628 119° Southeast 508 585 37,000  Level Kansas City Center
Thu 10:34:23 AM 38.0906 -99.7889 120° Southeast 510 587 37,000  Level Kansas City Center
Thu 10:35:27 AM 38.0217 -99.6397 120° Southeast 509 586 37,000  Level Kansas City Center
Thu 10:36:28 AM 37.9467 -99.4756 120° Southeast 510 587 37,000  Level Kansas City Center
Thu 10:37:29 AM 37.8758 -99.3206 120° Southeast 510 587 37,000  Level Kansas City Center
Thu 10:38:32 AM 37.8044 -99.1667 120° Southeast 509 586 37,000  Level Kansas City Center
Thu 10:39:33 AM 37.7325 -99.0117 120° Southeast 511 588 37,000  Level Kansas City Center
Thu 10:40:36 AM 37.6583 -98.8600 122° Southeast 511 588 37,000  Level Kansas City Center
Thu 10:41:38 AM 37.5681 -98.6744 122° Southeast 518 596 37,000  Level Kansas City Center
Thu 10:42:39 AM 37.4931 -98.5214 122° Southeast 517 595 37,000  Level Kansas City Center
Thu 10:43:40 AM 37.4183 -98.3689 122° Southeast 517 595 37,000  Level Kansas City Center
Thu 10:44:44 AM 37.3433 -98.2167 122° Southeast 516 594 37,000  Level Kansas City Center
Thu 10:45:45 AM 37.2675 -98.0644 122° Southeast 517 595 37,000 -1,561 Level Kansas City Center
Thu 10:46:47 AM 37.1767 -97.8814 122° Southeast 518 596 33,800 -3,097 Descending Kansas City Center
Thu 10:47:49 AM 37.1017 -97.7308 122° Southeast 514 592 30,600 -2,736 Descending Kansas City Center
Thu 10:48:52 AM 37.0281 -97.5783 121° Southeast 515 593 28,100 -2,238 Descending Kansas City Center
Thu 10:49:55 AM 36.9561 -97.4322 122° Southeast 505 581 25,900 -2,098 Descending Kansas City Center
Thu 10:50:55 AM 36.8869 -97.2933 122° Southeast 483 556 23,800 -2,129 Descending Kansas City Center
Thu 10:51:59 AM 36.8103 -97.1444 123° Southeast 461 531 21,500 -2,081 Descending Kansas City Center
Thu 10:52:59 AM 36.7433 -97.0231 125° Southeast 442 509 19,500 -1,790 Descending Kansas City Center
Thu 10:54:03 AM 36.6811 -96.8989 122° Southeast 431 496 17,800 -1,935 Descending Kansas City Center
Thu 10:55:03 AM 36.6194 -96.7794 123° Southeast 421 484 15,500 -1,934 Descending Kansas City Center
Thu 10:56:04 AM 36.5608 -96.6650 122° Southeast 408 470 13,900 -2,016 Descending Kansas City Center
Thu 10:57:08 AM 36.4925 -96.5333 123° Southeast 390 449 11,300 -1,918 Descending Kansas City Center
Thu 10:57:41 AM 36.4619 -96.4750 123° Southeast 355 409 10,800 -900 Descending Kansas City Center
Thu 10:58:08 AM 36.4406 -96.4350 124° Southeast 366 421 10,400 -1,151 Descending Kansas City Center
Thu 10:58:54 AM 36.4069 -96.3650 121° Southeast 296 341 9,400 -1,219 Descending Kansas City Center
Thu 10:59:12 AM 36.3972 -96.3481 125° Southeast 328 377 9,100 -1,869 Descending Kansas City Center
Thu 10:59:55 AM 36.3606 -96.2853 126° Southeast 282 325 7,500 -1,839 Descending Kansas City Center
Thu 11:00:14 AM 36.3503 -96.2697 129° Southeast 302 348 7,200 -900 Descending Kansas City Center
Thu 11:01:15 AM 36.2953 -96.2044 136° Southeast 284 327 6,300 -1,113 Descending Kansas City Center
Thu 11:01:51 AM 36.2581 -96.1608 137° Southeast 254 292 5,400 -1,238 Descending Kansas City Center
Thu 11:02:18 AM 36.2444 -96.1439 135° Southeast 269 310 5,000 -1,377 Descending Kansas City Center
Thu 11:02:52 AM 36.2189 -96.0933 122° Southeast 249 287 4,000 -1,672 Descending Kansas City Center
Thu 11:03:19 AM 36.2122 -96.0544 102° East 252 290 3,300 -1,500 Descending Kansas City Center
Thu 11:03:52 AM 36.2039 -96.0150 105° East 231 266 2,500 -1,082 Descending Kansas City Center
Thu 11:04:20 AM 36.1972 -95.9833 105° East 232 267 2,200 -689 Descending Kansas City Center
Thu 11:04:53 AM 36.1947 -95.9567 97° East 154 177 1,800 -844 Descending Kansas City Center
Thu 11:05:24 AM 36.1942 -95.9314 92° East 184 212 1,300 -652 Descending Kansas City Center
Thu 11:06:25 AM 36.1950 -95.8800 89° East 162 186 800 -492 Descending Kansas City Center
Thu 11:08:00 AM 36.1833 -95.8833 270° West  Level FlightAware Approximate
Thu 11:15:00 AM 36.1984 -95.8881 270° West  Level Estimated
Thu 11:16:00 AM 36.1984 -95.8881 270° West  Level Estimated
Thu 11:17:00 AM 36.1984 -95.8881 270° West  Level Estimated

Login

Don't have an account? Register now (free) for customized features, flight alerts, and more!